createdAt,value
2022-11-04T00:01:29.396Z,2.27
2022-11-04T00:03:57.314Z,2.07
2022-11-04T00:06:25.645Z,2.37
2022-11-04T00:08:56.632Z,2.10
2022-11-04T00:11:42.420Z,2.03
2022-11-04T00:14:11.169Z,1.83
2022-11-04T00:16:56.769Z,2.10
2022-11-04T00:19:25.540Z,1.90
2022-11-04T00:22:11.168Z,2.30
2022-11-04T00:24:58.076Z,2.00
2022-11-04T00:27:54.933Z,2.13
2022-11-04T00:30:22.894Z,2.30
2022-11-04T00:33:08.131Z,2.10
2022-11-04T00:35:36.076Z,2.40
2022-11-04T00:38:04.012Z,2.00
2022-11-04T00:40:33.297Z,2.60
2022-11-04T00:43:01.184Z,2.17
2022-11-04T00:45:29.101Z,2.30
2022-11-04T00:47:56.971Z,2.00
2022-11-04T00:50:24.897Z,2.37
2022-11-04T00:52:52.765Z,1.97
2022-11-04T00:55:20.651Z,2.33
2022-11-04T00:57:49.950Z,2.30
2022-11-04T01:00:18.504Z,2.50
2022-11-04T01:02:46.573Z,2.57
2022-11-04T01:05:14.713Z,2.43
2022-11-04T01:07:43.839Z,2.50
2022-11-04T01:10:12.048Z,2.40
2022-11-04T01:12:39.924Z,2.27
2022-11-04T01:15:10.292Z,2.10
2022-11-04T01:17:38.220Z,2.50
2022-11-04T01:20:06.630Z,2.30
2022-11-04T01:22:34.500Z,2.63
2022-11-04T01:25:02.516Z,2.17
2022-11-04T01:27:30.382Z,2.43
2022-11-04T01:29:58.292Z,2.63
2022-11-04T01:32:28.987Z,2.60
2022-11-04T01:34:56.907Z,2.73
2022-11-04T01:37:24.845Z,2.03
2022-11-04T01:39:52.756Z,2.40
2022-11-04T01:42:22.600Z,2.60
2022-11-04T01:44:58.271Z,2.67
2022-11-04T01:47:32.076Z,2.40
2022-11-04T01:50:02.559Z,2.80
2022-11-04T01:52:35.452Z,2.60
2022-11-04T01:55:07.464Z,2.60
2022-11-04T01:57:38.425Z,2.23
2022-11-04T02:00:09.186Z,2.60
2022-11-04T02:02:42.088Z,2.70
2022-11-04T02:05:10.840Z,2.47
2022-11-04T02:07:39.109Z,2.83
2022-11-04T02:10:07.844Z,2.60
2022-11-04T02:12:50.025Z,2.63
2022-11-04T02:15:19.972Z,2.70
2022-11-04T02:18:00.031Z,2.13
2022-11-04T02:20:32.956Z,2.30
2022-11-04T02:23:26.894Z,2.47
2022-11-04T02:26:08.612Z,2.83
2022-11-04T02:28:51.657Z,2.43
2022-11-04T02:31:25.099Z,2.70
2022-11-04T02:33:57.384Z,2.43
2022-11-04T02:36:33.908Z,2.50
2022-11-04T02:39:06.148Z,2.73
2022-11-04T02:41:41.676Z,2.77
2022-11-04T02:44:16.914Z,2.30
2022-11-04T02:46:49.564Z,2.67
2022-11-04T02:49:21.028Z,2.97
2022-11-04T02:51:52.311Z,2.60
2022-11-04T02:54:25.102Z,2.40
2022-11-04T02:56:53.811Z,2.30
2022-11-04T02:59:28.319Z,2.80
2022-11-04T03:01:58.163Z,2.70
2022-11-04T03:04:28.637Z,3.00
2022-11-04T03:06:57.965Z,3.00
2022-11-04T03:09:26.965Z,2.57
2022-11-04T03:11:58.397Z,2.57
2022-11-04T03:14:28.239Z,3.17
2022-11-04T03:16:59.344Z,2.87
2022-11-04T03:19:30.714Z,2.73
2022-11-04T03:22:00.968Z,2.83
2022-11-04T03:24:29.024Z,2.80
2022-11-04T03:27:01.014Z,2.93
2022-11-04T03:29:32.035Z,3.47
2022-11-04T03:32:09.024Z,3.10
2022-11-04T03:34:38.411Z,3.63
2022-11-04T03:37:06.702Z,3.20
2022-11-04T03:39:34.892Z,3.33
2022-11-04T03:42:20.373Z,3.07
2022-11-04T03:44:50.173Z,3.40
2022-11-04T03:47:21.686Z,3.27
2022-11-04T03:49:50.333Z,3.07
2022-11-04T03:52:19.260Z,2.67
2022-11-04T03:54:47.580Z,2.80
2022-11-04T03:57:45.278Z,2.60
2022-11-04T04:00:14.900Z,2.97
2022-11-04T04:02:51.100Z,2.70
2022-11-04T04:05:22.644Z,2.67
2022-11-04T04:07:55.314Z,2.03
2022-11-04T04:10:41.017Z,2.10
2022-11-04T04:13:19.651Z,2.37
2022-11-04T04:15:51.989Z,2.17
2022-11-04T04:18:26.803Z,1.90
2022-11-04T04:20:56.316Z,2.10
2022-11-04T04:23:44.181Z,1.93
2022-11-04T04:26:30.604Z,1.50
2022-11-04T04:28:59.313Z,1.40
2022-11-04T04:31:50.419Z,1.50
2022-11-04T04:34:21.568Z,1.20
2022-11-04T04:36:54.788Z,1.17
2022-11-04T04:39:43.149Z,1.20
2022-11-04T04:42:29.366Z,1.10
2022-11-04T04:45:04.387Z,1.47
2022-11-04T04:47:41.209Z,1.40
2022-11-04T04:50:11.896Z,1.23
2022-11-04T04:52:42.786Z,1.30
2022-11-04T04:55:11.652Z,1.50
2022-11-04T04:57:39.555Z,2.53
2022-11-04T05:00:09.696Z,1.50
2022-11-04T05:02:37.677Z,1.40
2022-11-04T05:05:06.497Z,1.27
2022-11-04T05:07:35.844Z,1.33
2022-11-04T05:10:03.759Z,1.20
2022-11-04T05:12:52.124Z,1.50
2022-11-04T05:15:20.044Z,1.40
2022-11-04T05:17:47.953Z,1.57
2022-11-04T05:20:15.932Z,1.60
2022-11-04T05:22:45.280Z,1.40
2022-11-04T05:25:13.168Z,1.33
2022-11-04T05:27:41.158Z,1.60
2022-11-04T05:30:09.893Z,1.70
2022-11-04T05:32:37.867Z,1.83
2022-11-04T05:35:06.854Z,1.83
2022-11-04T05:37:34.759Z,1.50
2022-11-04T05:40:04.251Z,1.97
2022-11-04T05:42:32.869Z,1.73
2022-11-04T05:45:00.756Z,1.60
2022-11-04T05:47:28.673Z,1.93
2022-11-04T05:49:56.611Z,2.80
2022-11-04T05:52:24.527Z,1.90
2022-11-04T05:54:52.395Z,1.70
2022-11-04T05:57:21.720Z,1.63
2022-11-04T05:59:49.604Z,2.07
2022-11-04T06:02:17.647Z,1.83
2022-11-04T06:04:45.652Z,1.93
2022-11-04T06:07:13.598Z,2.57
2022-11-04T06:09:41.760Z,2.00
2022-11-04T06:12:11.292Z,2.20
2022-11-04T06:14:40.540Z,2.10
2022-11-04T06:17:08.970Z,2.13
2022-11-04T06:19:36.908Z,2.30
2022-11-04T06:22:04.820Z,2.43
2022-11-04T06:24:32.759Z,1.80
2022-11-04T06:27:00.629Z,2.40
2022-11-04T06:29:28.498Z,2.70
2022-11-04T06:31:57.806Z,2.43
2022-11-04T06:34:25.823Z,2.50
2022-11-04T06:36:53.751Z,2.10
2022-11-04T06:39:21.683Z,2.50
2022-11-04T06:41:51.652Z,2.10
2022-11-04T06:44:20.096Z,2.07
2022-11-04T06:46:48.588Z,2.60
2022-11-04T06:49:20.072Z,2.50
2022-11-04T06:51:48.683Z,2.97
2022-11-04T06:54:17.323Z,2.27
2022-11-04T06:56:45.876Z,2.27
2022-11-04T06:59:16.787Z,2.43
2022-11-04T07:01:45.058Z,2.47
2022-11-04T07:04:13.076Z,2.80
2022-11-04T07:06:44.728Z,2.70
2022-11-04T07:09:13.921Z,2.60
2022-11-04T07:11:42.582Z,2.87
2022-11-04T07:14:10.670Z,2.67
2022-11-04T07:16:38.681Z,2.90
2022-11-04T07:19:07.296Z,3.03
2022-11-04T07:21:35.517Z,2.80
2022-11-04T07:24:04.974Z,2.40
2022-11-04T07:26:32.900Z,2.57
2022-11-04T07:29:01.101Z,2.57
2022-11-04T07:31:29.327Z,2.87
2022-11-04T07:33:57.376Z,1.97
2022-11-04T07:36:25.318Z,3.20
2022-11-04T07:38:53.201Z,2.87
2022-11-04T07:41:23.062Z,2.97
2022-11-04T07:43:51.983Z,2.93
2022-11-04T07:46:20.959Z,3.20
2022-11-04T07:48:49.014Z,3.33
2022-11-04T07:51:19.871Z,2.87
2022-11-04T07:53:47.958Z,2.97
2022-11-04T07:56:16.160Z,3.20
2022-11-04T07:58:45.906Z,2.33
2022-11-04T08:01:16.394Z,3.00
2022-11-04T08:03:44.499Z,2.37
2022-11-04T08:06:14.075Z,2.70
2022-11-04T08:08:43.600Z,2.83
2022-11-04T08:11:17.491Z,2.60
2022-11-04T08:13:48.249Z,3.27
2022-11-04T08:16:17.541Z,3.50
2022-11-04T08:18:45.828Z,3.40
2022-11-04T08:21:14.139Z,3.00
2022-11-04T08:23:42.240Z,2.90
2022-11-04T08:26:11.079Z,3.17
2022-11-04T08:28:39.574Z,3.03
2022-11-04T08:31:13.094Z,3.20
2022-11-04T08:33:41.816Z,2.70
2022-11-04T08:36:12.347Z,2.10
2022-11-04T08:38:40.304Z,2.50
2022-11-04T08:41:10.385Z,2.90
2022-11-04T08:43:38.692Z,2.73
2022-11-04T08:46:09.600Z,3.43
2022-11-04T08:48:38.351Z,2.77
2022-11-04T08:51:07.737Z,2.90
2022-11-04T08:53:36.008Z,2.60
2022-11-04T08:56:10.987Z,2.17
2022-11-04T08:58:39.000Z,2.33
2022-11-04T09:01:07.286Z,2.60
2022-11-04T09:03:38.581Z,2.30
2022-11-04T09:06:07.122Z,1.90
2022-11-04T09:08:35.040Z,1.53
2022-11-04T09:11:02.941Z,1.63
2022-11-04T09:13:33.359Z,1.60
2022-11-04T09:16:04.998Z,1.70
2022-11-04T09:18:33.070Z,1.57
2022-11-04T09:21:02.453Z,1.40
2022-11-04T09:23:31.043Z,1.40
2022-11-04T09:25:59.636Z,1.83
2022-11-04T09:28:27.546Z,1.83
2022-11-04T09:30:55.529Z,1.70
2022-11-04T09:33:23.433Z,1.80
2022-11-04T09:35:56.896Z,1.53
2022-11-04T09:38:26.697Z,1.50
2022-11-04T09:40:54.920Z,1.90
2022-11-04T09:43:37.872Z,1.70
2022-11-04T09:46:06.004Z,1.50
2022-11-04T09:48:36.574Z,1.77
2022-11-04T09:51:06.624Z,1.90
2022-11-04T09:53:41.444Z,1.80
2022-11-04T09:56:16.316Z,2.07
2022-11-04T09:58:44.585Z,1.97
2022-11-04T10:01:22.221Z,1.80
2022-11-04T10:04:04.636Z,1.77
2022-11-04T10:06:39.741Z,1.60
2022-11-04T10:09:22.808Z,1.60
2022-11-04T10:11:59.779Z,1.77
2022-11-04T10:14:39.755Z,1.83
2022-11-04T10:17:15.491Z,1.70
2022-11-04T10:19:54.155Z,2.07
2022-11-04T10:22:30.015Z,1.30
2022-11-04T10:25:06.080Z,1.10
2022-11-04T10:27:36.653Z,1.17
2022-11-04T10:30:08.187Z,1.20
2022-11-04T10:32:40.221Z,0.93
2022-11-04T10:35:17.917Z,0.90
2022-11-04T10:37:46.476Z,0.67
2022-11-04T10:40:23.050Z,0.77
2022-11-04T10:42:51.699Z,0.90
2022-11-04T10:45:22.300Z,0.60
2022-11-04T10:47:55.001Z,0.60
2022-11-04T10:50:34.999Z,0.50
2022-11-04T10:53:16.861Z,0.60
2022-11-04T10:55:50.919Z,0.60
2022-11-04T10:58:23.802Z,0.50
2022-11-04T11:00:52.740Z,0.50
2022-11-04T11:03:32.593Z,0.43
2022-11-04T11:06:13.160Z,0.60
2022-11-04T11:08:41.577Z,0.47
2022-11-04T11:11:11.197Z,0.50
2022-11-04T11:13:41.126Z,0.70
2022-11-04T11:16:11.835Z,0.43
2022-11-04T11:18:40.261Z,0.40
2022-11-04T11:21:11.946Z,0.70
2022-11-04T11:23:45.362Z,0.40
2022-11-04T11:26:16.116Z,0.60
2022-11-04T11:28:54.416Z,0.60
2022-11-04T11:31:26.802Z,0.70
2022-11-04T11:33:57.973Z,0.60
2022-11-04T11:36:27.416Z,0.73
2022-11-04T11:38:58.556Z,0.80
2022-11-04T11:41:32.374Z,0.60
2022-11-04T11:44:03.063Z,0.60
2022-11-04T11:46:33.742Z,0.50
2022-11-04T11:49:03.347Z,0.57
2022-11-04T11:51:34.047Z,1.00
2022-11-04T11:54:18.219Z,1.20
2022-11-04T11:57:12.525Z,0.40
2022-11-04T12:02:36.129Z,1.00
2022-11-04T12:10:52.500Z,1.10
2022-11-04T12:13:28.677Z,0.70
2022-11-04T12:16:15.191Z,0.60
2022-11-04T12:18:51.757Z,0.50
2022-11-04T12:21:24.132Z,0.70
2022-11-04T12:23:55.666Z,0.40
2022-11-04T12:26:31.133Z,0.80
2022-11-04T12:29:21.675Z,0.73
2022-11-04T12:31:54.488Z,0.90
2022-11-04T12:34:35.836Z,0.97
2022-11-04T12:37:13.653Z,0.60
2022-11-04T12:40:04.623Z,0.70
2022-11-04T12:42:40.160Z,0.80
2022-11-04T12:45:20.048Z,0.80
2022-11-04T12:47:48.712Z,0.60
2022-11-04T12:50:33.170Z,0.70
2022-11-04T12:53:25.060Z,0.63
2022-11-04T12:56:00.412Z,0.60
2022-11-04T12:58:46.084Z,0.93
2022-11-04T13:01:19.405Z,0.67
2022-11-04T13:03:51.584Z,0.73
2022-11-04T13:06:21.522Z,0.70
2022-11-04T13:08:53.231Z,0.77
2022-11-04T13:11:25.017Z,0.70
2022-11-04T13:14:02.101Z,0.63
2022-11-04T13:16:32.144Z,0.80
2022-11-04T13:19:00.623Z,0.63
2022-11-04T13:21:31.904Z,0.93
2022-11-04T13:24:04.302Z,1.10
2022-11-04T13:26:32.980Z,0.87
2022-11-04T13:29:08.965Z,0.80
2022-11-04T13:31:48.160Z,0.70
2022-11-04T13:34:24.572Z,0.60
2022-11-04T13:36:59.230Z,0.60
2022-11-04T13:39:29.380Z,0.70
2022-11-04T13:42:35.680Z,0.73
2022-11-04T13:45:07.941Z,0.50
2022-11-04T13:47:39.953Z,0.77
2022-11-04T13:50:08.494Z,0.50
2022-11-04T13:52:52.665Z,0.77
2022-11-04T13:55:21.987Z,0.63
2022-11-04T13:57:55.034Z,0.83
2022-11-04T14:00:25.516Z,0.60
2022-11-04T14:02:55.876Z,1.00
2022-11-04T14:06:03.784Z,0.70
2022-11-04T14:08:32.012Z,0.60
2022-11-04T14:11:12.379Z,0.90
2022-11-04T14:13:58.790Z,0.80
2022-11-04T14:16:45.899Z,0.37
2022-11-04T14:20:02.151Z,1.00
2022-11-04T14:22:36.875Z,0.70
2022-11-04T14:25:20.377Z,1.10
2022-11-04T14:27:49.494Z,0.70
2022-11-04T14:30:46.627Z,0.70
2022-11-04T14:33:43.268Z,0.83
2022-11-04T14:36:35.821Z,0.70
2022-11-04T14:39:08.711Z,0.43
2022-11-04T14:41:52.112Z,0.87
2022-11-04T14:44:22.603Z,0.70
2022-11-04T14:46:54.750Z,0.70
2022-11-04T14:49:34.372Z,0.97
2022-11-04T14:52:03.012Z,0.60
2022-11-04T14:54:34.880Z,0.40
2022-11-04T14:57:11.165Z,0.53
2022-11-04T14:59:39.087Z,0.83
2022-11-04T15:02:14.819Z,0.60
2022-11-04T15:04:48.404Z,0.83
2022-11-04T15:07:25.682Z,0.73
2022-11-04T15:09:55.147Z,0.70
2022-11-04T15:12:40.633Z,1.20
2022-11-04T15:15:41.680Z,0.60
2022-11-04T15:18:13.589Z,0.70
2022-11-04T15:20:46.470Z,0.70
2022-11-04T15:23:17.864Z,0.80
2022-11-04T15:25:48.795Z,0.60
2022-11-04T15:28:20.813Z,0.70
2022-11-04T15:30:59.867Z,1.10
2022-11-04T15:33:27.779Z,0.80
2022-11-04T15:35:56.607Z,0.77
2022-11-04T15:38:26.835Z,0.70
2022-11-04T15:40:57.288Z,0.90
2022-11-04T15:43:24.719Z,0.90
2022-11-04T15:45:53.636Z,0.63
2022-11-04T15:48:26.282Z,0.87
2022-11-04T15:51:03.591Z,1.80
2022-11-04T15:53:32.843Z,1.00
2022-11-04T15:56:02.603Z,1.00
2022-11-04T15:58:31.735Z,1.00
2022-11-04T16:00:59.688Z,0.87
2022-11-04T16:03:29.708Z,0.80
2022-11-04T16:06:06.299Z,0.70
2022-11-04T16:08:34.678Z,1.00
2022-11-04T16:11:18.603Z,0.77
2022-11-04T16:13:47.207Z,1.10
2022-11-04T16:16:32.925Z,0.70
2022-11-04T16:19:01.713Z,1.00
2022-11-04T16:21:30.901Z,1.10
2022-11-04T16:24:01.803Z,0.73
2022-11-04T16:26:33.264Z,0.67
2022-11-04T16:29:02.518Z,0.77
2022-11-04T16:31:35.094Z,1.10
2022-11-04T16:34:03.125Z,1.37
2022-11-04T16:36:35.525Z,0.90
2022-11-04T16:39:08.320Z,1.00
2022-11-04T16:41:39.477Z,1.20
2022-11-04T16:44:17.202Z,1.23
2022-11-04T16:46:45.649Z,0.97
2022-11-04T16:49:16.379Z,1.13
2022-11-04T16:51:44.403Z,1.10
2022-11-04T16:54:12.366Z,0.63
2022-11-04T16:56:41.926Z,0.80
2022-11-04T16:59:11.747Z,0.77
2022-11-04T17:01:40.770Z,1.03
2022-11-04T17:04:09.057Z,1.00
2022-11-04T17:06:37.736Z,0.90
2022-11-04T17:09:07.528Z,1.17
2022-11-04T17:11:35.412Z,0.83
2022-11-04T17:14:04.696Z,0.90
2022-11-04T17:16:32.657Z,1.00
2022-11-04T17:19:00.700Z,1.07
2022-11-04T17:21:28.644Z,1.53
2022-11-04T17:23:57.372Z,2.10
2022-11-04T17:26:25.290Z,1.07
2022-11-04T17:28:53.222Z,1.07
2022-11-04T17:31:22.766Z,5.77
2022-11-04T17:33:50.722Z,1.20
2022-11-04T17:36:20.179Z,2.00
2022-11-04T17:38:48.312Z,4.27
2022-11-04T17:41:38.988Z,3.10
2022-11-04T17:44:06.870Z,2.47
2022-11-04T17:46:37.947Z,1.70
2022-11-04T17:49:08.872Z,1.87
2022-11-04T17:51:37.496Z,2.07
2022-11-04T17:54:05.919Z,3.23
2022-11-04T17:56:34.057Z,1.63
2022-11-04T17:59:03.944Z,1.00
2022-11-04T18:01:33.145Z,1.10
2022-11-04T18:04:03.117Z,1.13
2022-11-04T18:06:32.079Z,1.23
2022-11-04T18:09:00.280Z,1.17
2022-11-04T18:11:47.552Z,1.73
2022-11-04T18:14:17.198Z,1.70
2022-11-04T18:16:46.563Z,2.20
2022-11-04T18:19:16.927Z,1.20
2022-11-04T18:21:45.104Z,1.50
2022-11-04T18:24:13.222Z,1.87
2022-11-04T18:26:41.366Z,1.80
2022-11-04T18:29:09.750Z,1.70
2022-11-04T18:31:40.483Z,1.57
2022-11-04T18:34:13.021Z,1.50
2022-11-04T18:36:43.150Z,3.27
2022-11-04T18:39:13.704Z,7.10
2022-11-04T18:41:41.910Z,2.33
2022-11-04T18:44:09.901Z,2.43
2022-11-04T18:46:37.913Z,4.90
2022-11-04T18:49:05.852Z,6.27
2022-11-04T18:51:33.745Z,4.43
2022-11-04T18:54:04.681Z,3.70
2022-11-04T18:56:32.589Z,7.53
2022-11-04T18:59:01.350Z,7.37
2022-11-04T19:01:30.983Z,5.87
2022-11-04T19:03:59.363Z,4.87
2022-11-04T19:06:29.699Z,3.87
2022-11-04T19:08:59.696Z,3.37
2022-11-04T19:11:33.402Z,3.40
2022-11-04T19:14:08.980Z,3.77
2022-11-04T19:16:37.939Z,2.87
2022-11-04T19:19:08.051Z,2.77
2022-11-04T19:21:36.451Z,2.83
2022-11-04T19:24:08.232Z,3.97
2022-11-04T19:26:37.512Z,3.37
2022-11-04T19:29:06.063Z,2.90
2022-11-04T19:31:34.036Z,2.30
2022-11-04T19:34:04.227Z,2.63
2022-11-04T19:36:33.729Z,2.60
2022-11-04T19:39:01.672Z,2.67
2022-11-04T19:41:46.788Z,2.67
2022-11-04T19:44:18.116Z,3.30
2022-11-04T19:46:46.820Z,2.90
2022-11-04T19:49:15.143Z,3.00
2022-11-04T19:51:43.377Z,2.90
2022-11-04T19:54:11.754Z,3.00
2022-11-04T19:56:39.872Z,2.93
2022-11-04T19:59:09.103Z,2.40
2022-11-04T20:01:38.451Z,2.20
2022-11-04T20:04:06.918Z,2.23
2022-11-04T20:06:35.561Z,2.30
2022-11-04T20:09:05.721Z,2.17
2022-11-04T20:11:33.871Z,1.90
2022-11-04T20:14:06.540Z,1.90
2022-11-04T20:16:39.339Z,1.90
2022-11-04T20:19:08.911Z,2.30
2022-11-04T20:21:37.976Z,2.60
2022-11-04T20:24:08.424Z,2.20
2022-11-04T20:26:38.160Z,2.93
2022-11-04T20:29:06.440Z,3.40
2022-11-04T20:31:36.397Z,3.47
2022-11-04T20:34:06.073Z,2.57
2022-11-04T20:36:36.082Z,4.03
2022-11-04T20:39:05.753Z,3.20
2022-11-04T20:41:34.100Z,2.60
2022-11-04T20:44:02.729Z,2.50
2022-11-04T20:46:31.676Z,3.13
2022-11-04T20:48:59.871Z,2.73
2022-11-04T20:51:29.477Z,2.70
2022-11-04T20:54:00.858Z,2.70
2022-11-04T20:56:31.153Z,2.90
2022-11-04T20:58:59.867Z,3.30
2022-11-04T21:01:29.774Z,2.50
2022-11-04T21:04:00.897Z,2.43
2022-11-04T21:06:29.533Z,2.73
2022-11-04T21:08:59.592Z,5.80
2022-11-04T21:11:32.127Z,4.23
2022-11-04T21:14:00.650Z,4.20
2022-11-04T21:16:29.037Z,3.70
2022-11-04T21:18:57.232Z,4.10
2022-11-04T21:21:27.757Z,3.50
2022-11-04T21:23:59.227Z,4.03
2022-11-04T21:26:29.347Z,3.87
2022-11-04T21:28:57.734Z,3.70
2022-11-04T21:31:27.040Z,3.20
2022-11-04T21:33:54.993Z,3.27
2022-11-04T21:36:23.496Z,2.67
2022-11-04T21:38:51.482Z,3.20
2022-11-04T21:41:24.348Z,2.97
2022-11-04T21:43:55.153Z,3.30
2022-11-04T21:46:23.268Z,3.30
2022-11-04T21:48:51.537Z,2.73
2022-11-04T21:51:21.731Z,2.60
2022-11-04T21:53:49.701Z,3.30
2022-11-04T21:56:20.611Z,2.90
2022-11-04T21:58:49.036Z,2.60
2022-11-04T22:01:19.216Z,3.17
2022-11-04T22:03:51.716Z,2.80
2022-11-04T22:06:19.899Z,2.50
2022-11-04T22:08:53.794Z,3.03
2022-11-04T22:11:25.457Z,2.90
2022-11-04T22:13:56.970Z,2.97
2022-11-04T22:16:26.530Z,2.90
2022-11-04T22:18:55.076Z,2.63
2022-11-04T22:21:24.032Z,2.50
2022-11-04T22:23:52.025Z,2.43
2022-11-04T22:26:21.487Z,2.30
2022-11-04T22:28:50.877Z,2.50
2022-11-04T22:31:20.725Z,2.40
2022-11-04T22:33:48.807Z,2.23
2022-11-04T22:36:16.745Z,2.33
2022-11-04T22:38:44.679Z,2.37
2022-11-04T22:41:14.860Z,2.20
2022-11-04T22:43:42.772Z,2.10
2022-11-04T22:46:14.677Z,1.93
2022-11-04T22:48:42.899Z,2.10
2022-11-04T22:51:11.319Z,2.00
2022-11-04T22:53:39.537Z,2.20
2022-11-04T22:56:08.912Z,2.00
2022-11-04T22:58:36.920Z,1.80
2022-11-04T23:01:07.050Z,2.03
2022-11-04T23:03:36.406Z,1.83
2022-11-04T23:06:05.562Z,1.80
2022-11-04T23:08:35.050Z,1.93
2022-11-04T23:11:22.553Z,1.70
2022-11-04T23:14:09.413Z,1.93
2022-11-04T23:16:54.868Z,2.07
2022-11-04T23:19:29.781Z,1.60
2022-11-04T23:22:16.287Z,1.87
2022-11-04T23:25:01.667Z,1.87
2022-11-04T23:27:46.925Z,1.80
2022-11-04T23:30:25.749Z,1.50
2022-11-04T23:32:56.093Z,1.97
2022-11-04T23:35:44.579Z,1.40
2022-11-04T23:38:12.774Z,1.70
2022-11-04T23:40:40.727Z,1.83
2022-11-04T23:43:08.082Z,1.90
2022-11-04T23:45:53.708Z,1.90
2022-11-04T23:48:38.857Z,1.63
2022-11-04T23:51:27.799Z,1.77
2022-11-04T23:54:27.664Z,1.40
2022-11-04T23:57:13.057Z,1.83
2022-11-04T23:59:58.389Z,2.20
